createdAt,value
2022-11-14T00:02:18.688Z,2.40
2022-11-14T00:05:09.156Z,2.35
2022-11-14T00:07:57.136Z,3.83
2022-11-14T00:10:46.792Z,2.45
2022-11-14T00:13:35.879Z,2.00
2022-11-14T00:16:25.149Z,1.90
2022-11-14T00:22:00.558Z,2.20
2022-11-14T00:24:49.790Z,2.25
2022-11-14T00:27:38.256Z,2.10
2022-11-14T00:30:27.937Z,1.98
2022-11-14T00:33:20.527Z,2.12
2022-11-14T00:36:09.677Z,2.17
2022-11-14T00:38:57.720Z,2.12
2022-11-14T00:41:45.189Z,2.02
2022-11-14T00:44:33.023Z,2.00
2022-11-14T00:47:20.312Z,2.42
2022-11-14T00:50:09.667Z,2.65
2022-11-14T00:52:57.366Z,2.45
2022-11-14T00:55:45.421Z,2.37
2022-11-14T00:58:35.124Z,2.80
2022-11-14T01:01:23.158Z,3.10
2022-11-14T01:04:10.382Z,2.90
2022-11-14T01:09:44.875Z,4.10
2022-11-14T01:12:32.527Z,4.60
2022-11-14T01:15:20.689Z,3.30
2022-11-14T01:18:11.433Z,3.85
2022-11-14T01:20:59.109Z,3.50
2022-11-14T01:23:47.818Z,3.20
2022-11-14T01:26:36.983Z,4.20
2022-11-14T01:29:24.673Z,3.55
2022-11-14T01:32:11.720Z,3.50
2022-11-14T01:35:01.928Z,3.27
2022-11-14T01:37:50.113Z,3.62
2022-11-14T01:40:46.936Z,4.17
2022-11-14T01:43:37.041Z,4.28
2022-11-14T01:46:37.090Z,6.22
2022-11-14T01:49:29.133Z,4.78
2022-11-14T01:52:29.939Z,5.92
2022-11-14T01:55:18.854Z,5.10
2022-11-14T01:58:05.986Z,3.87
2022-11-14T02:00:53.489Z,3.70
2022-11-14T02:03:42.869Z,3.83
2022-11-14T02:06:31.800Z,2.92
2022-11-14T02:09:20.830Z,3.20
2022-11-14T02:12:09.928Z,3.22
2022-11-14T02:14:57.752Z,3.50
2022-11-14T02:17:46.659Z,3.10
2022-11-14T02:20:38.213Z,3.33
2022-11-14T02:23:30.535Z,3.22
2022-11-14T02:26:21.278Z,3.55
2022-11-14T02:29:10.764Z,3.62
2022-11-14T02:31:58.401Z,4.10
2022-11-14T02:34:47.493Z,3.85
2022-11-14T02:37:35.224Z,3.80
2022-11-14T02:40:22.573Z,5.12
2022-11-14T02:43:09.540Z,3.53
2022-11-14T02:46:00.213Z,3.20
2022-11-14T02:48:46.856Z,4.30
2022-11-14T02:51:34.478Z,4.42
2022-11-14T02:54:22.007Z,4.92
2022-11-14T02:57:10.980Z,4.00
2022-11-14T02:59:59.705Z,3.62
2022-11-14T03:05:34.617Z,2.58
2022-11-14T03:08:22.138Z,2.90
2022-11-14T03:11:10.128Z,2.80
2022-11-14T03:16:45.771Z,2.52
2022-11-14T03:19:34.730Z,3.87
2022-11-14T03:22:23.871Z,5.35
2022-11-14T03:25:11.478Z,5.30
2022-11-14T03:27:58.886Z,4.53
2022-11-14T03:30:46.876Z,4.00
2022-11-14T03:33:34.584Z,4.40
2022-11-14T03:36:22.216Z,4.35
2022-11-14T03:39:09.575Z,3.55
2022-11-14T03:41:56.489Z,3.92
2022-11-14T03:44:44.876Z,5.20
2022-11-14T03:47:32.772Z,4.62
2022-11-14T03:53:07.319Z,5.85
2022-11-14T03:55:54.505Z,4.73
2022-11-14T03:58:41.941Z,4.65
2022-11-14T04:01:29.688Z,5.83
2022-11-14T04:04:17.195Z,6.10
2022-11-14T04:07:04.874Z,5.83
2022-11-14T04:09:54.403Z,5.30
2022-11-14T04:12:50.397Z,5.40
2022-11-14T04:15:37.963Z,4.92
2022-11-14T04:18:26.070Z,4.95
2022-11-14T04:21:14.352Z,5.17
2022-11-14T04:24:08.434Z,4.80
2022-11-14T04:26:53.203Z,5.35
2022-11-14T04:29:41.119Z,5.20
2022-11-14T04:32:28.539Z,5.10
2022-11-14T04:35:16.708Z,5.55
2022-11-14T04:38:04.049Z,5.03
2022-11-14T04:40:53.028Z,5.05
2022-11-14T04:43:40.319Z,4.90
2022-11-14T04:46:28.009Z,4.70
2022-11-14T04:49:15.294Z,5.08
2022-11-14T04:54:51.779Z,5.20
2022-11-14T04:57:39.286Z,6.12
2022-11-14T05:03:13.612Z,5.10
2022-11-14T05:06:02.035Z,4.72
2022-11-14T05:08:49.902Z,5.55
2022-11-14T05:11:37.357Z,5.22
2022-11-14T05:14:25.325Z,5.47
2022-11-14T05:17:14.472Z,5.03
2022-11-14T05:20:02.522Z,5.90
2022-11-14T05:22:55.000Z,5.70
2022-11-14T05:25:44.219Z,5.03
2022-11-14T05:28:33.277Z,4.85
2022-11-14T05:31:21.237Z,5.75
2022-11-14T05:36:55.844Z,5.05
2022-11-14T05:39:43.803Z,5.12
2022-11-14T05:45:19.376Z,5.80
2022-11-14T05:48:07.176Z,6.85
2022-11-14T05:50:59.873Z,7.35
2022-11-14T05:53:47.191Z,8.45
2022-11-14T05:56:35.399Z,7.78
2022-11-14T05:59:24.567Z,8.45
2022-11-14T06:02:12.562Z,8.58
2022-11-14T06:05:00.382Z,7.50
2022-11-14T06:07:47.428Z,7.55
2022-11-14T06:10:36.276Z,6.75
2022-11-14T06:13:25.418Z,5.78
2022-11-14T06:16:17.965Z,6.00
2022-11-14T06:19:06.764Z,7.12
2022-11-14T06:21:55.174Z,6.30
2022-11-14T06:24:43.141Z,6.45
2022-11-14T06:27:30.894Z,6.20
2022-11-14T06:33:06.640Z,6.05
2022-11-14T06:35:59.682Z,8.93
2022-11-14T06:38:47.424Z,11.85
2022-11-14T06:41:35.623Z,11.10
2022-11-14T06:44:29.425Z,14.25
2022-11-14T06:47:14.262Z,13.53
2022-11-14T06:52:49.460Z,8.90
2022-11-14T06:55:38.238Z,8.40
2022-11-14T07:01:23.416Z,6.55
2022-11-14T07:04:12.499Z,4.05
2022-11-14T07:09:48.207Z,3.77
2022-11-14T07:12:36.399Z,3.20
2022-11-14T07:15:24.350Z,3.70
2022-11-14T07:18:13.448Z,3.98
2022-11-14T07:21:03.233Z,3.15
2022-11-14T07:23:50.821Z,3.80
2022-11-14T07:26:40.833Z,3.30
2022-11-14T07:29:28.934Z,3.35
2022-11-14T07:32:17.768Z,6.70
2022-11-14T07:35:06.397Z,4.30
2022-11-14T07:37:54.399Z,4.20
2022-11-14T07:40:43.066Z,4.08
2022-11-14T07:43:31.250Z,5.37
2022-11-14T07:49:07.670Z,5.15
2022-11-14T07:51:55.193Z,4.35
2022-11-14T07:54:44.094Z,4.12
2022-11-14T07:57:35.548Z,3.90
2022-11-14T08:00:24.733Z,4.10
2022-11-14T08:03:12.489Z,4.03
2022-11-14T08:06:06.626Z,4.00
2022-11-14T08:08:54.958Z,3.33
2022-11-14T08:11:49.474Z,3.42
2022-11-14T08:14:39.400Z,3.27
2022-11-14T08:17:26.953Z,7.03
2022-11-14T08:20:17.256Z,3.55
2022-11-14T08:23:07.252Z,2.92
2022-11-14T08:25:59.111Z,3.22
2022-11-14T08:28:47.427Z,2.87
2022-11-14T08:31:35.676Z,2.70
2022-11-14T08:37:12.061Z,2.60
2022-11-14T08:40:02.548Z,2.40
2022-11-14T08:42:51.822Z,2.90
2022-11-14T08:45:40.748Z,2.70
2022-11-14T08:48:28.665Z,3.15
2022-11-14T08:51:17.550Z,2.92
2022-11-14T08:56:53.952Z,2.77
2022-11-14T08:59:42.360Z,2.85
2022-11-14T09:02:31.190Z,3.08
2022-11-14T09:05:19.312Z,2.87
2022-11-14T09:10:55.926Z,2.47
2022-11-14T09:13:44.806Z,3.02
2022-11-14T09:16:33.766Z,3.12
2022-11-14T09:19:21.578Z,2.55
2022-11-14T09:22:09.733Z,2.80
2022-11-14T09:24:57.219Z,2.98
2022-11-14T09:27:45.349Z,2.62
2022-11-14T09:30:35.177Z,2.90
2022-11-14T09:33:23.316Z,2.58
2022-11-14T09:36:13.636Z,2.62
2022-11-14T09:39:01.597Z,1.80
2022-11-14T09:41:59.722Z,2.20
2022-11-14T09:45:07.128Z,2.55
2022-11-14T09:48:13.629Z,2.65
2022-11-14T09:51:10.371Z,1.90
2022-11-14T09:54:21.956Z,1.80
2022-11-14T09:57:18.122Z,1.87
2022-11-14T10:00:20.119Z,1.72
2022-11-14T10:03:19.836Z,1.80
2022-11-14T10:06:33.965Z,2.33
2022-11-14T10:09:45.852Z,2.20
2022-11-14T10:12:43.284Z,3.17
2022-11-14T10:15:41.739Z,2.60
2022-11-14T10:19:24.068Z,2.08
2022-11-14T10:22:40.985Z,1.60
2022-11-14T10:25:54.014Z,2.20
2022-11-14T10:29:00.411Z,2.27
2022-11-14T10:32:29.773Z,2.37
2022-11-14T10:35:41.931Z,2.00
2022-11-14T10:39:10.001Z,1.70
2022-11-14T10:42:07.689Z,2.00
2022-11-14T10:45:25.961Z,2.37
2022-11-14T10:48:18.862Z,2.08
2022-11-14T10:51:24.613Z,2.00
2022-11-14T10:54:48.551Z,1.35
2022-11-14T10:57:39.754Z,2.00
2022-11-14T11:00:27.902Z,2.02
2022-11-14T11:03:16.112Z,2.40
2022-11-14T11:06:05.177Z,1.87
2022-11-14T11:09:13.278Z,2.87
2022-11-14T11:12:02.965Z,2.22
2022-11-14T11:15:21.990Z,1.80
2022-11-14T11:18:35.136Z,1.80
2022-11-14T11:21:24.904Z,1.50
2022-11-14T11:24:12.429Z,2.00
2022-11-14T11:27:28.262Z,1.72
2022-11-14T11:30:25.806Z,2.02
2022-11-14T11:33:23.198Z,1.80
2022-11-14T11:36:19.818Z,1.65
2022-11-14T11:39:12.472Z,1.50
2022-11-14T11:42:10.294Z,1.77
2022-11-14T11:44:58.800Z,2.22
2022-11-14T11:47:56.127Z,1.37
2022-11-14T11:50:45.958Z,1.47
2022-11-14T11:53:47.283Z,1.30
2022-11-14T11:56:36.008Z,1.20
2022-11-14T11:59:37.577Z,1.47
2022-11-14T12:02:26.487Z,1.00
2022-11-14T12:05:33.438Z,1.00
2022-11-14T12:08:38.983Z,1.20
2022-11-14T12:11:27.664Z,1.30
2022-11-14T12:14:51.729Z,1.40
2022-11-14T12:17:56.708Z,1.52
2022-11-14T12:21:06.930Z,1.80
2022-11-14T12:24:05.251Z,1.80
2022-11-14T12:27:30.096Z,1.50
2022-11-14T12:30:22.680Z,1.95
2022-11-14T12:33:22.035Z,1.60
2022-11-14T12:36:11.578Z,1.77
2022-11-14T12:38:58.775Z,1.90
2022-11-14T12:41:47.566Z,2.02
2022-11-14T12:47:31.209Z,1.77
2022-11-14T12:50:43.242Z,1.70
2022-11-14T12:53:40.420Z,1.67
2022-11-14T12:56:37.035Z,1.98
2022-11-14T12:59:41.991Z,1.92
2022-11-14T13:02:54.490Z,1.90
2022-11-14T13:06:20.373Z,1.70
2022-11-14T13:09:41.513Z,2.00
2022-11-14T13:12:52.266Z,1.82
2022-11-14T13:16:12.057Z,2.17
2022-11-14T13:19:40.357Z,1.90
2022-11-14T13:22:41.632Z,2.20
2022-11-14T13:25:30.265Z,2.33
2022-11-14T13:28:45.385Z,2.10
2022-11-14T13:31:43.189Z,2.12
2022-11-14T13:34:39.651Z,2.20
2022-11-14T13:37:35.108Z,1.60
2022-11-14T13:40:59.908Z,1.60
2022-11-14T13:44:02.033Z,1.98
2022-11-14T13:47:10.542Z,1.90
2022-11-14T13:50:17.793Z,1.92
2022-11-14T13:53:17.295Z,2.40
2022-11-14T13:56:22.099Z,1.90
2022-11-14T13:59:20.457Z,2.22
2022-11-14T14:02:33.916Z,2.22
2022-11-14T14:05:50.757Z,2.00
2022-11-14T14:09:08.775Z,1.80
2022-11-14T14:12:10.491Z,2.37
2022-11-14T14:15:23.772Z,2.20
2022-11-14T14:18:54.276Z,2.35
2022-11-14T14:21:56.847Z,2.30
2022-11-14T14:25:23.000Z,2.33
2022-11-14T14:28:32.895Z,2.10
2022-11-14T14:31:22.479Z,2.67
2022-11-14T14:34:31.614Z,3.00
2022-11-14T14:37:28.212Z,2.87
2022-11-14T14:40:34.915Z,3.08
2022-11-14T14:43:30.237Z,3.22
2022-11-14T14:46:19.213Z,3.02
2022-11-14T14:49:07.997Z,3.70
2022-11-14T14:51:58.762Z,3.02
2022-11-14T14:54:55.633Z,3.40
2022-11-14T14:57:42.698Z,3.33
2022-11-14T15:00:30.973Z,3.10
2022-11-14T15:03:18.888Z,3.50
2022-11-14T15:09:22.471Z,3.15
2022-11-14T15:12:11.990Z,4.28
2022-11-14T15:15:01.654Z,4.05
2022-11-14T15:17:49.593Z,3.90
2022-11-14T15:20:39.003Z,7.00
2022-11-14T15:23:26.510Z,4.67
2022-11-14T15:26:19.207Z,4.37
2022-11-14T15:29:21.381Z,4.05
2022-11-14T15:32:13.979Z,3.90
2022-11-14T15:35:10.945Z,3.90
2022-11-14T15:41:22.697Z,3.27
2022-11-14T15:44:30.187Z,3.25
2022-11-14T15:47:27.628Z,3.12
2022-11-14T15:50:21.023Z,3.17
2022-11-14T15:53:22.940Z,3.10
2022-11-14T15:56:13.687Z,3.12
2022-11-14T15:59:01.289Z,3.27
2022-11-14T16:01:53.051Z,2.90
2022-11-14T16:04:46.169Z,3.00
2022-11-14T16:07:31.092Z,3.30
2022-11-14T16:10:23.404Z,3.60
2022-11-14T16:13:12.003Z,3.17
2022-11-14T16:16:00.004Z,2.90
2022-11-14T16:21:36.862Z,3.33
2022-11-14T16:24:24.518Z,3.17
2022-11-14T16:27:12.918Z,3.20
2022-11-14T16:30:01.134Z,3.25
2022-11-14T16:32:49.479Z,3.22
2022-11-14T16:35:37.284Z,3.60
2022-11-14T16:38:25.278Z,3.58
2022-11-14T16:41:13.995Z,3.95
2022-11-14T16:44:02.018Z,3.90
2022-11-14T16:46:50.449Z,3.92
2022-11-14T16:49:37.975Z,3.30
2022-11-14T16:52:25.250Z,4.15
2022-11-14T16:55:12.889Z,4.17
2022-11-14T16:58:00.875Z,3.92
2022-11-14T17:00:47.888Z,4.25
2022-11-14T17:03:36.555Z,4.58
2022-11-14T17:06:23.989Z,4.03
2022-11-14T17:09:15.369Z,4.15
2022-11-14T17:12:02.538Z,5.25
2022-11-14T17:14:51.200Z,4.40
2022-11-14T17:20:27.908Z,3.65
2022-11-14T17:23:16.415Z,4.67
2022-11-14T17:26:05.943Z,4.55
2022-11-14T17:28:53.784Z,4.45
2022-11-14T17:34:31.000Z,5.00
2022-11-14T17:37:19.822Z,5.55
2022-11-14T17:40:12.720Z,5.00
2022-11-14T17:42:58.177Z,5.67
2022-11-14T17:45:56.241Z,5.20
2022-11-14T17:48:45.105Z,4.25
2022-11-14T17:51:33.384Z,5.05
2022-11-14T17:57:10.064Z,5.03
2022-11-14T17:59:57.491Z,5.33
2022-11-14T18:02:44.488Z,4.87
2022-11-14T18:05:31.967Z,3.80
2022-11-14T18:08:19.858Z,4.90
2022-11-14T18:11:11.512Z,4.92
2022-11-14T18:13:59.516Z,5.47
2022-11-14T18:17:11.886Z,4.67
2022-11-14T18:19:39.461Z,5.00
2022-11-14T18:22:28.041Z,4.50
2022-11-14T18:25:17.959Z,3.95
2022-11-14T18:28:06.008Z,3.83
2022-11-14T18:30:56.302Z,4.17
2022-11-14T18:33:43.958Z,4.83
2022-11-14T18:39:18.070Z,3.35
2022-11-14T18:42:06.893Z,3.77
2022-11-14T18:44:56.907Z,4.67
2022-11-14T18:47:46.907Z,3.85
2022-11-14T18:50:34.918Z,3.45
2022-11-14T18:53:23.670Z,3.80
2022-11-14T18:56:14.747Z,4.10
2022-11-14T18:59:02.130Z,3.60
2022-11-14T19:01:50.607Z,3.65
2022-11-14T19:04:41.887Z,3.58
2022-11-14T19:07:30.331Z,3.52
2022-11-14T19:10:19.229Z,3.77
2022-11-14T19:13:07.688Z,3.90
2022-11-14T19:15:57.472Z,3.77
2022-11-14T19:18:46.267Z,3.85
2022-11-14T19:21:33.798Z,3.87
2022-11-14T19:27:10.226Z,3.95
2022-11-14T19:29:58.155Z,5.30
2022-11-14T19:32:47.450Z,4.55
2022-11-14T19:35:39.399Z,4.42
2022-11-14T19:38:28.141Z,5.15
2022-11-14T19:41:23.239Z,4.87
2022-11-14T19:44:10.670Z,5.60
2022-11-14T19:47:00.556Z,4.95
2022-11-14T19:49:49.713Z,4.47
2022-11-14T19:52:37.462Z,5.55
2022-11-14T19:55:25.709Z,5.08
2022-11-14T19:58:14.108Z,5.17
2022-11-14T20:01:08.667Z,5.97
2022-11-14T20:04:00.647Z,5.45
2022-11-14T20:06:49.539Z,5.20
2022-11-14T20:09:37.138Z,5.60
2022-11-14T20:12:26.105Z,5.78
2022-11-14T20:15:14.252Z,5.90
2022-11-14T20:18:01.624Z,6.70
2022-11-14T20:20:49.300Z,6.60
2022-11-14T20:23:37.455Z,6.33
2022-11-14T20:26:25.585Z,6.50
2022-11-14T20:29:14.236Z,6.30
2022-11-14T20:32:03.189Z,6.55
2022-11-14T20:34:50.502Z,6.55
2022-11-14T20:37:42.183Z,7.25
2022-11-14T20:40:29.752Z,6.78
2022-11-14T20:43:18.000Z,7.78
2022-11-14T20:46:16.588Z,8.88
2022-11-14T20:49:06.250Z,8.93
2022-11-14T20:51:55.638Z,9.60
2022-11-14T20:54:43.557Z,9.48
2022-11-14T20:57:35.212Z,9.13
2022-11-14T21:00:24.187Z,9.03
2022-11-14T21:03:12.327Z,9.00
2022-11-14T21:06:01.063Z,9.20
2022-11-14T21:08:49.335Z,8.78
2022-11-14T21:11:38.710Z,9.75
2022-11-14T21:14:26.767Z,9.38
2022-11-14T21:17:15.298Z,8.58
2022-11-14T21:20:03.079Z,9.18
2022-11-14T21:22:50.981Z,9.20
2022-11-14T21:25:40.780Z,10.23
2022-11-14T21:28:31.204Z,9.75
2022-11-14T21:31:31.773Z,9.38
2022-11-14T21:34:19.492Z,9.65
2022-11-14T21:37:07.898Z,9.35
2022-11-14T21:42:43.249Z,9.93
2022-11-14T21:45:31.876Z,11.10
2022-11-14T21:48:20.542Z,9.98
2022-11-14T21:51:12.647Z,11.03
2022-11-14T21:54:06.424Z,9.78
2022-11-14T21:56:54.140Z,9.95
2022-11-14T21:59:42.248Z,9.93
2022-11-14T22:02:49.531Z,9.45
2022-11-14T22:05:37.605Z,10.58
2022-11-14T22:08:25.806Z,10.60
2022-11-14T22:11:14.165Z,9.28
2022-11-14T22:14:01.795Z,9.15
2022-11-14T22:16:51.376Z,8.40
2022-11-14T22:19:39.827Z,8.70
2022-11-14T22:22:28.001Z,8.73
2022-11-14T22:25:16.715Z,8.40
2022-11-14T22:28:05.348Z,6.50
2022-11-14T22:31:14.887Z,5.15
2022-11-14T22:34:03.473Z,5.30
2022-11-14T22:36:52.510Z,5.17
2022-11-14T22:39:39.806Z,5.00
2022-11-14T22:42:27.388Z,4.65
2022-11-14T22:45:15.321Z,5.05
2022-11-14T22:48:04.205Z,5.50
2022-11-14T22:51:02.048Z,4.22
2022-11-14T22:53:52.135Z,4.15
2022-11-14T22:56:41.405Z,4.60
2022-11-14T23:02:15.708Z,4.45
2022-11-14T23:05:05.455Z,4.33
2022-11-14T23:07:55.116Z,4.35
2022-11-14T23:10:42.665Z,4.50
2022-11-14T23:13:31.398Z,4.97
2022-11-14T23:16:23.649Z,4.72
2022-11-14T23:19:11.535Z,4.70
2022-11-14T23:22:00.920Z,4.83
2022-11-14T23:24:49.832Z,3.37
2022-11-14T23:27:39.192Z,3.92
2022-11-14T23:30:27.909Z,3.45
2022-11-14T23:33:16.593Z,3.40
2022-11-14T23:36:05.772Z,4.15
2022-11-14T23:38:53.635Z,4.00
2022-11-14T23:44:28.496Z,3.92
2022-11-14T23:47:15.722Z,4.20
2022-11-14T23:50:03.197Z,3.98
2022-11-14T23:52:51.682Z,3.30
2022-11-14T23:55:39.355Z,3.80
2022-11-14T23:58:28.942Z,4.12
